Time;durP1;ratioP1;P1;durP2;ratioP2;P2;SDS_P1;SDS_P2;PMS_P1;PMS_P2;Temp;Humidity;BMP_temperature;BMP_pressure;BME280_temperature;BME280_humidity;BME280_pressure;Samples;Min_cycle;Max_cycle;Signal;HPM_P1;HPM_P2
2023/05/10 00:00:54;;;;;;;1.60;1.30;;;17.30;66.90;;;;;;20530;6831;313691;-77
2023/05/10 00:03:22;;;;;;;1.37;1.07;;;17.40;65.60;;;;;;20762;6831;117138;-79
2023/05/10 00:05:48;;;;;;;1.10;1.10;;;17.40;65.60;;;;;;20538;6831;306533;-76
2023/05/10 00:08:14;;;;;;;2.60;1.40;;;17.60;64.30;;;;;;20522;6831;307390;-77
2023/05/10 00:10:40;;;;;;;2.17;1.00;;;17.80;63.40;;;;;;20746;6831;117709;-77
2023/05/10 00:13:06;;;;;;;2.80;0.80;;;17.50;64.90;;;;;;20758;6831;117482;-76
2023/05/10 00:15:32;;;;;;;1.80;0.80;;;17.50;64.90;;;;;;20766;6831;117603;-77
2023/05/10 00:17:57;;;;;;;1.93;0.80;;;17.30;65.80;;;;;;20770;6831;117138;-76
2023/05/10 00:20:23;;;;;;;1.77;1.10;;;17.30;65.20;;;;;;20542;6831;307608;-77
2023/05/10 00:22:49;;;;;;;0.93;0.90;;;17.30;65.10;;;;;;20746;6831;121129;-77
2023/05/10 00:25:16;;;;;;;1.75;0.90;;;17.30;65.80;;;;;;20551;6831;301623;-77
2023/05/10 00:27:42;;;;;;;1.57;0.93;;;17.80;63.40;;;;;;20559;6830;276866;-77
2023/05/10 00:30:08;;;;;;;1.10;0.87;;;17.80;63.70;;;;;;20554;6830;306311;-77
2023/05/10 00:32:34;;;;;;;1.50;0.82;;;18.20;62.50;;;;;;20547;6831;277797;-77
2023/05/10 00:34:59;;;;;;;1.10;0.90;;;18.10;61.80;;;;;;20434;6840;307324;-76
2023/05/10 00:37:26;;;;;;;1.23;0.80;;;18.30;61.10;;;;;;20527;6827;310442;-77
2023/05/10 00:39:51;;;;;;;0.87;0.70;;;18.30;61.10;;;;;;20555;6827;306646;-77
2023/05/10 00:42:17;;;;;;;0.70;0.70;;;18.30;60.70;;;;;;20564;6827;311024;-77
2023/05/10 00:44:42;;;;;;;1.40;0.60;;;18.30;60.60;;;;;;20555;6827;336038;-79
2023/05/10 00:47:09;;;;;;;0.83;0.70;;;18.30;60.00;;;;;;20579;6827;307586;-77
2023/05/10 00:49:35;;;;;;;0.70;0.70;;;18.30;60.00;;;;;;20779;6827;118221;-77
2023/05/10 00:52:02;;;;;;;1.07;0.60;;;18.00;61.10;;;;;;20779;6827;117033;-77
2023/05/10 00:54:28;;;;;;;1.20;0.73;;;17.70;62.50;;;;;;20568;6827;307219;-77
2023/05/10 00:56:53;;;;;;;0.67;0.50;;;17.70;62.40;;;;;;20761;6827;124289;-77
2023/05/10 00:59:19;;;;;;;2.70;0.60;;;17.70;62.20;;;;;;20568;6827;306475;-77
2023/05/10 01:01:46;;;;;;;0.70;0.50;;;17.90;61.50;;;;;;20558;6827;311290;-77
2023/05/10 01:04:12;;;;;;;0.45;0.45;;;17.80;61.20;;;;;;20559;6827;281158;-77
2023/05/10 01:06:38;;;;;;;2.13;0.50;;;18.10;60.30;;;;;;20536;6827;305728;-76
2023/05/10 01:09:03;;;;;;;0.43;0.43;;;18.10;60.30;;;;;;20561;6827;304813;-77
2023/05/10 01:11:29;;;;;;;0.40;0.40;;;18.20;60.20;;;;;;20559;6827;307278;-80
2023/05/10 01:13:54;;;;;;;0.40;0.40;;;18.20;60.10;;;;;;20773;6827;117290;-77
2023/05/10 01:16:20;;;;;;;1.07;0.53;;;17.90;60.80;;;;;;20765;6827;117105;-77
2023/05/10 01:18:46;;;;;;;0.50;0.50;;;17.60;62.20;;;;;;20537;6827;307238;-77
2023/05/10 01:21:38;;;;;;;0.50;0.50;;;17.60;62.20;;;;;;20556;6827;306797;-77
2023/05/10 01:24:10;;;;;;;1.60;0.60;;;17.80;61.70;;;;;;20546;6827;306440;-77
2023/05/10 01:26:39;;;;;;;1.50;0.50;;;18.00;60.80;;;;;;19766;6860;307976;-77
2023/05/10 01:29:11;;;;;;;2.80;0.50;;;18.10;60.70;;;;;;19878;6841;118078;-77
2023/05/10 01:32:00;;;;;;;0.70;0.43;;;17.80;61.40;;;;;;20714;6839;117484;-77
2023/05/10 01:34:25;;;;;;;1.77;0.55;;;17.50;62.80;;;;;;20452;6858;307980;-77
2023/05/10 01:36:51;;;;;;;0.40;0.40;;;17.50;62.50;;;;;;20468;6843;307341;-77
2023/05/10 01:39:24;;;;;;;0.30;0.30;;;17.70;62.00;;;;;;20719;6841;117685;-77
2023/05/10 01:41:49;;;;;;;0.90;0.47;;;17.60;62.50;;;;;;20499;6842;307015;-77
2023/05/10 01:44:15;;;;;;;0.93;0.57;;;17.60;62.30;;;;;;20718;6842;119730;-76
2023/05/10 01:46:41;;;;;;;2.20;0.52;;;17.50;62.40;;;;;;20482;6842;307011;-77
2023/05/10 01:49:10;;;;;;;1.13;0.43;;;17.50;62.10;;;;;;20724;6842;117463;-77
2023/05/10 01:51:37;;;;;;;0.40;0.40;;;17.50;62.60;;;;;;20472;6843;283504;-78
2023/05/10 01:54:01;;;;;;;1.00;0.40;;;17.50;62.60;;;;;;20503;6843;282385;-77
2023/05/10 01:56:27;;;;;;;1.10;0.40;;;17.70;61.60;;;;;;20725;6843;121971;-77
2023/05/10 01:58:52;;;;;;;0.20;0.20;;;17.50;62.10;;;;;;20713;6843;117174;-77
2023/05/10 02:01:18;;;;;;;0.40;0.27;;;17.20;63.20;;;;;;20731;6843;117691;-77
2023/05/10 02:03:45;;;;;;;0.30;0.30;;;17.00;64.30;;;;;;20515;6843;340332;-77
2023/05/10 02:06:10;;;;;;;1.00;0.30;;;17.10;62.50;;;;;;20506;6843;308212;-77
2023/05/10 02:08:36;;;;;;;0.10;0.10;;;17.40;61.30;;;;;;20695;6843;118758;-77
2023/05/10 02:11:02;;;;;;;0.35;0.30;;;17.30;61.80;;;;;;20719;6843;117634;-77
2023/05/10 02:13:28;;;;;;;0.20;0.20;;;17.00;62.60;;;;;;20674;6858;117309;-77
2023/05/10 02:15:54;;;;;;;0.33;0.20;;;16.80;63.60;;;;;;20513;6843;307770;-77
2023/05/10 02:18:20;;;;;;;0.75;0.32;;;17.20;61.80;;;;;;20439;6858;307387;-78
2023/05/10 02:20:46;;;;;;;0.97;0.23;;;17.20;61.80;;;;;;20669;6853;117681;-77
2023/05/10 02:23:11;;;;;;;0.83;0.20;;;17.10;62.20;;;;;;20436;6867;307323;-79
2023/05/10 02:25:38;;;;;;;1.17;0.30;;;17.20;61.60;;;;;;20647;6867;120901;-77
2023/05/10 02:28:02;;;;;;;0.93;0.30;;;17.10;62.10;;;;;;20687;6858;117217;-77
2023/05/10 02:30:28;;;;;;;1.80;0.37;;;16.60;63.80;;;;;;20653;6868;119511;-77
2023/05/10 02:32:54;;;;;;;0.70;0.23;;;16.60;63.80;;;;;;20672;6853;123569;-77
2023/05/10 02:35:20;;;;;;;0.50;0.33;;;16.50;64.70;;;;;;20689;6853;117373;-77
2023/05/10 02:37:45;;;;;;;0.83;0.43;;;16.30;65.20;;;;;;20473;6853;307106;-77
2023/05/10 02:40:11;;;;;;;0.65;0.30;;;16.50;63.60;;;;;;20471;6853;312571;-77
2023/05/10 02:42:36;;;;;;;1.10;0.30;;;16.90;62.20;;;;;;20672;6853;117999;-78
2023/05/10 02:45:02;;;;;;;2.30;0.40;;;16.80;62.60;;;;;;20478;6853;342356;-77
2023/05/10 02:47:34;;;;;;;0.90;0.40;;;17.00;61.80;;;;;;20681;6853;117772;-78
2023/05/10 02:50:00;;;;;;;0.60;0.60;;;17.00;61.70;;;;;;20477;6853;340872;-77
2023/05/10 02:52:27;;;;;;;1.10;0.33;;;17.00;61.70;;;;;;20695;6851;119800;-77
2023/05/10 02:54:52;;;;;;;1.10;0.40;;;16.90;62.20;;;;;;20457;6852;302774;-77
2023/05/10 02:57:21;;;;;;;2.03;0.40;;;17.00;61.60;;;;;;20686;6852;117260;-77
2023/05/10 02:59:47;;;;;;;1.67;0.37;;;16.90;62.20;;;;;;20695;6852;117069;-77
2023/05/10 03:02:12;;;;;;;0.50;0.30;;;16.60;63.00;;;;;;20481;6853;288710;-83
2023/05/10 03:04:38;;;;;;;1.23;0.40;;;16.70;61.80;;;;;;20383;6853;289760;-77
2023/05/10 03:07:04;;;;;;;0.60;0.55;;;17.00;60.80;;;;;;20478;6853;292775;-77
2023/05/10 03:09:29;;;;;;;0.50;0.50;;;17.20;60.10;;;;;;20686;6853;117757;-80
2023/05/10 03:12:11;;;;;;;0.70;0.50;;;17.00;60.90;;;;;;20468;6853;308444;-78
2023/05/10 03:14:57;;;;;;;0.40;0.37;;;16.80;61.10;;;;;;20659;6853;119262;-77
2023/05/10 03:17:30;;;;;;;2.13;0.50;;;16.80;61.00;;;;;;20413;6853;307596;-77
2023/05/10 03:19:58;;;;;;;0.50;0.50;;;16.90;60.70;;;;;;20660;6853;120384;-77
2023/05/10 03:22:28;;;;;;;0.57;0.57;;;16.80;61.20;;;;;;20464;6853;278449;-77
2023/05/10 03:24:54;;;;;;;1.20;0.50;;;16.80;61.20;;;;;;20400;6853;303254;-77
2023/05/10 03:27:19;;;;;;;0.47;0.47;;;17.00;60.30;;;;;;20657;6853;117880;-77
2023/05/10 03:29:46;;;;;;;2.23;0.70;;;16.90;61.00;;;;;;20422;6853;285051;-77
2023/05/10 03:32:11;;;;;;;0.77;0.60;;;16.90;60.60;;;;;;20672;6853;119945;-79
2023/05/10 03:34:37;;;;;;;0.97;0.60;;;16.80;61.50;;;;;;20445;6853;280300;-78
2023/05/10 03:37:03;;;;;;;3.80;0.67;;;16.80;60.40;;;;;;20450;6853;289789;-77
2023/05/10 03:39:29;;;;;;;1.30;0.60;;;17.20;59.20;;;;;;20458;6853;330656;-77
2023/05/10 03:41:55;;;;;;;1.40;0.77;;;17.10;59.10;;;;;;20690;6853;117252;-77
2023/05/10 03:44:20;;;;;;;0.50;0.50;;;16.90;59.90;;;;;;20704;6853;120665;-77
2023/05/10 03:46:46;;;;;;;0.73;0.73;;;16.40;62.20;;;;;;20676;6853;123165;-77
2023/05/10 03:49:13;;;;;;;0.63;0.63;;;16.30;62.10;;;;;;20489;6853;278448;-77
2023/05/10 03:51:38;;;;;;;1.43;0.60;;;16.50;61.20;;;;;;20479;6853;300223;-77
2023/05/10 03:54:03;;;;;;;0.70;0.70;;;16.80;60.60;;;;;;20704;6853;119799;-77
2023/05/10 03:56:30;;;;;;;1.37;0.70;;;16.70;61.00;;;;;;20477;6853;339104;-78
2023/05/10 03:58:56;;;;;;;1.70;0.70;;;17.00;59.70;;;;;;20460;6853;336979;-85
2023/05/10 04:01:22;;;;;;;1.53;0.60;;;17.00;60.00;;;;;;20690;6853;117583;-80
2023/05/10 04:03:47;;;;;;;0.50;0.50;;;16.80;60.20;;;;;;20705;6851;117185;-76
2023/05/10 04:06:13;;;;;;;1.90;0.80;;;16.50;61.20;;;;;;20461;6852;278160;-76
2023/05/10 04:08:39;;;;;;;2.10;0.80;;;16.60;60.20;;;;;;20669;6852;123333;-80
2023/05/10 04:11:04;;;;;;;1.07;0.90;;;16.50;60.80;;;;;;20481;6852;308814;-80
2023/05/10 04:13:30;;;;;;;2.67;1.00;;;16.60;60.60;;;;;;20441;6867;313638;-76
2023/05/10 04:15:58;;;;;;;1.23;0.97;;;16.90;60.60;;;;;;20461;6856;306999;-80
2023/05/10 04:18:24;;;;;;;1.60;1.00;;;17.10;60.10;;;;;;20527;6833;281672;-75
2023/05/10 04:20:49;;;;;;;1.23;0.70;;;17.20;59.40;;;;;;20719;6833;117278;-76
2023/05/10 04:23:16;;;;;;;2.73;0.90;;;16.70;61.30;;;;;;20706;6848;117262;-83
2023/05/10 04:25:41;;;;;;;0.70;0.70;;;16.70;61.30;;;;;;20751;6833;117354;-79
2023/05/10 04:28:07;;;;;;;1.67;1.03;;;16.40;62.50;;;;;;20742;6833;119235;-77
2023/05/10 04:30:33;;;;;;;1.02;0.75;;;16.20;63.40;;;;;;20754;6833;117046;-77
2023/05/10 04:32:59;;;;;;;0.90;0.90;;;16.00;65.30;;;;;;20741;6833;118353;-79
2023/05/10 04:35:25;;;;;;;2.30;1.20;;;16.00;64.70;;;;;;20545;6833;308633;-78
2023/05/10 04:37:50;;;;;;;1.40;1.30;;;16.20;64.30;;;;;;20541;6833;307418;-79
2023/05/10 04:40:16;;;;;;;1.27;0.90;;;16.60;63.50;;;;;;20757;6833;117252;-77
2023/05/10 04:42:41;;;;;;;1.23;1.23;;;16.70;63.70;;;;;;20744;6833;118198;-80
2023/05/10 04:45:07;;;;;;;1.10;1.10;;;16.50;64.20;;;;;;20481;6853;299507;-78
2023/05/10 04:47:33;;;;;;;1.43;1.17;;;16.70;63.60;;;;;;20734;6843;119691;-81
2023/05/10 04:49:58;;;;;;;2.07;1.53;;;16.70;63.80;;;;;;20544;6838;337685;-78
2023/05/10 04:52:24;;;;;;;1.42;1.30;;;16.80;62.80;;;;;;20547;6838;278877;-79
2023/05/10 04:54:50;;;;;;;1.20;1.20;;;17.10;62.20;;;;;;20732;6838;117945;-76
2023/05/10 04:57:15;;;;;;;2.57;1.20;;;17.00;63.20;;;;;;20738;6838;118919;-77
2023/05/10 04:59:42;;;;;;;1.92;1.30;;;16.90;62.90;;;;;;20533;6838;310678;-78
2023/05/10 05:02:08;;;;;;;2.30;1.40;;;16.90;62.90;;;;;;20534;6838;312697;-82
2023/05/10 05:04:35;;;;;;;1.42;1.30;;;17.50;60.90;;;;;;20529;6838;336565;-77
2023/05/10 05:07:00;;;;;;;2.53;1.37;;;17.50;60.90;;;;;;20538;6838;308052;-78
2023/05/10 05:09:26;;;;;;;1.55;1.30;;;17.70;61.00;;;;;;20545;6838;284927;-77
2023/05/10 05:11:52;;;;;;;2.22;1.30;;;17.90;59.60;;;;;;20558;6838;278382;-75
2023/05/10 05:14:20;;;;;;;1.20;1.10;;;17.90;59.60;;;;;;20564;6836;284426;-80
2023/05/10 05:16:45;;;;;;;1.30;1.30;;;18.00;59.30;;;;;;20496;6837;307474;-75
2023/05/10 05:19:10;;;;;;;2.22;1.20;;;18.10;58.70;;;;;;20510;6837;307891;-79
2023/05/10 05:21:36;;;;;;;1.33;0.93;;;18.10;57.80;;;;;;20754;6837;120828;-77
2023/05/10 05:24:02;;;;;;;2.50;1.40;;;17.70;58.80;;;;;;20565;6837;277916;-77
2023/05/10 05:26:29;;;;;;;1.23;1.00;;;17.50;59.80;;;;;;20761;6838;116268;-77
2023/05/10 05:28:54;;;;;;;1.00;0.87;;;17.50;59.80;;;;;;20775;6838;122706;-78
2023/05/10 05:31:20;;;;;;;1.07;1.07;;;17.20;61.00;;;;;;20775;6838;117089;-76
2023/05/10 05:33:46;;;;;;;1.30;1.30;;;17.00;62.10;;;;;;20554;6838;282452;-77
2023/05/10 05:36:11;;;;;;;1.10;1.03;;;17.10;61.40;;;;;;20775;6838;119615;-75
2023/05/10 05:38:37;;;;;;;1.65;1.37;;;17.20;61.90;;;;;;20496;6838;280339;-75
2023/05/10 05:41:02;;;;;;;2.37;1.48;;;17.30;61.10;;;;;;20529;6838;308622;-78
2023/05/10 05:43:28;;;;;;;2.50;1.63;;;17.60;61.00;;;;;;20535;6838;278518;-77
2023/05/10 05:45:54;;;;;;;1.77;1.67;;;17.80;60.20;;;;;;20537;6838;279295;-79
2023/05/10 05:48:19;;;;;;;1.40;1.30;;;18.00;59.80;;;;;;20742;6838;120160;-77
2023/05/10 05:50:46;;;;;;;2.20;1.30;;;17.80;60.30;;;;;;20719;6838;117549;-78
2023/05/10 05:53:13;;;;;;;2.23;1.40;;;17.50;61.30;;;;;;20535;6838;280636;-78
2023/05/10 05:55:39;;;;;;;2.00;1.50;;;17.70;60.20;;;;;;20533;6838;278401;-79
2023/05/10 05:58:05;;;;;;;2.00;1.20;;;17.70;60.20;;;;;;20738;6838;119306;-76
2023/05/10 06:00:30;;;;;;;3.40;1.57;;;17.60;60.60;;;;;;20528;6838;311974;-76
2023/05/10 06:02:57;;;;;;;1.58;1.48;;;17.80;59.50;;;;;;20507;6838;307890;-75
2023/05/10 06:05:23;;;;;;;1.40;1.30;;;17.80;59.50;;;;;;20750;6838;117606;-76
2023/05/10 06:07:49;;;;;;;1.27;0.90;;;17.60;60.20;;;;;;20750;6838;117231;-76
2023/05/10 06:10:14;;;;;;;1.43;1.30;;;17.30;61.30;;;;;;20745;6838;117779;-76
2023/05/10 06:12:41;;;;;;;2.60;1.20;;;16.80;63.70;;;;;;20711;6838;121717;-76
2023/05/10 06:15:07;;;;;;;1.67;1.37;;;16.80;63.30;;;;;;20520;6838;337002;-77
2023/05/10 06:17:32;;;;;;;1.40;1.27;;;17.10;62.70;;;;;;20735;6838;117196;-76
2023/05/10 06:20:00;;;;;;;2.05;1.48;;;17.10;62.90;;;;;;20524;6838;308429;-75
2023/05/10 06:22:23;;;;;;;1.33;1.23;;;17.30;61.80;;;;;;20510;6838;282485;-76
2023/05/10 06:24:49;;;;;;;1.87;1.60;;;17.70;60.80;;;;;;20719;6836;122186;-76
2023/05/10 06:27:15;;;;;;;1.40;1.30;;;17.60;61.20;;;;;;20520;6837;307973;-76
2023/05/10 06:29:41;;;;;;;2.57;1.50;;;17.60;61.10;;;;;;20744;6837;117463;-76
2023/05/10 06:32:06;;;;;;;2.10;1.43;;;17.60;61.10;;;;;;20521;6837;335580;-76
2023/05/10 06:34:32;;;;;;;2.03;1.50;;;17.70;60.80;;;;;;20740;6837;119601;-76
2023/05/10 06:36:58;;;;;;;1.87;1.30;;;17.60;61.30;;;;;;20513;6838;306467;-75
2023/05/10 06:39:23;;;;;;;1.10;1.10;;;17.70;60.40;;;;;;20738;6838;117901;-75
2023/05/10 06:41:49;;;;;;;2.93;1.30;;;17.70;61.00;;;;;;20516;6838;307208;-76
2023/05/10 06:44:16;;;;;;;2.53;1.17;;;17.70;59.80;;;;;;20533;6838;280103;-76
2023/05/10 06:46:41;;;;;;;0.97;0.93;;;18.00;59.20;;;;;;20718;6838;117574;-76
2023/05/10 06:49:08;;;;;;;0.90;0.90;;;17.60;60.90;;;;;;20745;6838;119833;-76
2023/05/10 06:51:33;;;;;;;0.97;0.90;;;17.60;60.90;;;;;;20731;6838;117340;-76
2023/05/10 06:53:59;;;;;;;0.83;0.80;;;17.40;61.90;;;;;;20723;6838;117018;-75
2023/05/10 06:56:24;;;;;;;1.80;0.80;;;17.30;62.70;;;;;;20742;6838;117567;-76
2023/05/10 06:58:51;;;;;;;1.85;1.00;;;17.40;61.20;;;;;;20513;6838;307717;-76
2023/05/10 07:01:16;;;;;;;2.33;1.10;;;17.40;61.20;;;;;;20749;6838;117492;-76
2023/05/10 07:03:42;;;;;;;0.93;0.90;;;17.50;61.50;;;;;;20753;6838;117420;-76
2023/05/10 07:06:07;;;;;;;0.95;0.90;;;17.40;62.10;;;;;;20535;6838;307483;-76
2023/05/10 07:08:33;;;;;;;0.93;0.93;;;17.70;61.00;;;;;;20535;6838;278815;-76
2023/05/10 07:11:03;;;;;;;0.80;0.80;;;18.10;59.30;;;;;;20711;6838;121595;-76
2023/05/10 07:13:27;;;;;;;1.13;0.80;;;18.10;59.80;;;;;;20735;6838;117138;-76
2023/05/10 07:15:53;;;;;;;0.83;0.83;;;17.90;60.70;;;;;;20741;6838;121257;-76
2023/05/10 07:18:19;;;;;;;1.12;0.90;;;17.70;62.10;;;;;;20740;6838;117588;-77
2023/05/10 07:20:45;;;;;;;1.53;1.00;;;17.70;62.10;;;;;;20717;6838;117421;-77
2023/05/10 07:23:10;;;;;;;1.37;0.80;;;17.60;62.60;;;;;;20726;6838;117842;-77
2023/05/10 07:25:37;;;;;;;0.70;0.62;;;17.60;62.70;;;;;;20739;6838;117246;-74
2023/05/10 07:28:02;;;;;;;0.93;0.93;;;17.50;62.90;;;;;;20520;6838;307778;-73
2023/05/10 07:30:27;;;;;;;1.00;1.00;;;17.80;60.30;;;;;;20734;6838;120993;-75
2023/05/10 07:32:53;;;;;;;1.00;1.00;;;17.90;60.50;;;;;;20521;6838;439628;-75
2023/05/10 07:35:18;;;;;;;0.80;0.80;;;18.10;58.90;;;;;;20753;6838;118205;-75
2023/05/10 07:37:44;;;;;;;1.10;1.00;;;18.00;59.40;;;;;;20543;6836;291592;-75
2023/05/10 07:40:11;;;;;;;0.70;0.70;;;18.20;58.40;;;;;;20740;6837;118243;-74
2023/05/10 07:42:36;;;;;;;1.03;0.93;;;18.10;59.00;;;;;;20515;6837;278071;-75
2023/05/10 07:45:02;;;;;;;1.20;1.10;;;18.30;58.10;;;;;;20528;6837;308423;-73
2023/05/10 07:47:27;;;;;;;1.00;0.80;;;18.50;58.00;;;;;;20539;6837;288273;-75
2023/05/10 07:49:53;;;;;;;1.90;0.90;;;18.70;57.10;;;;;;20531;6838;307065;-75
2023/05/10 07:52:19;;;;;;;0.90;0.80;;;18.90;55.90;;;;;;20747;6838;121097;-75
2023/05/10 07:54:44;;;;;;;1.10;1.05;;;18.70;56.80;;;;;;20516;6838;344910;-76
2023/05/10 07:57:10;;;;;;;1.05;1.00;;;18.70;56.20;;;;;;20532;6838;307451;-77
2023/05/10 07:59:36;;;;;;;1.15;0.80;;;19.00;56.00;;;;;;20543;6838;336293;-75
2023/05/10 08:02:02;;;;;;;3.13;0.80;;;19.00;56.00;;;;;;20747;6838;117095;-77
2023/05/10 08:04:27;;;;;;;0.73;0.68;;;18.80;56.90;;;;;;20535;6838;308160;-76
2023/05/10 08:06:53;;;;;;;0.57;0.50;;;18.80;56.00;;;;;;20719;6838;118098;-75
2023/05/10 08:09:23;;;;;;;1.65;0.70;;;18.60;56.90;;;;;;20515;6838;312750;-76
2023/05/10 08:11:44;;;;;;;0.63;0.63;;;18.70;56.50;;;;;;20725;6838;117467;-77
2023/05/10 08:14:09;;;;;;;0.68;0.43;;;18.60;57.40;;;;;;20743;6838;117409;-75
2023/05/10 08:16:35;;;;;;;1.57;0.60;;;18.30;58.10;;;;;;20736;6838;117520;-74
2023/05/10 08:19:01;;;;;;;0.90;0.70;;;18.10;58.90;;;;;;20515;6838;332506;-74
2023/05/10 08:21:26;;;;;;;1.35;0.60;;;18.20;57.20;;;;;;20533;6838;278578;-74
2023/05/10 08:23:52;;;;;;;0.80;0.80;;;18.50;56.50;;;;;;20722;6838;117088;-74
2023/05/10 08:26:17;;;;;;;0.87;0.60;;;18.50;57.30;;;;;;20503;6838;277522;-74
2023/05/10 08:28:43;;;;;;;1.33;0.60;;;18.60;55.80;;;;;;20496;6838;305437;-74
2023/05/10 08:31:08;;;;;;;0.47;0.47;;;18.80;55.30;;;;;;20737;6838;117154;-74
2023/05/10 08:33:34;;;;;;;0.80;0.67;;;18.80;56.20;;;;;;20530;6838;307885;-74
2023/05/10 08:36:00;;;;;;;1.20;0.60;;;18.80;56.70;;;;;;20745;6838;122295;-74
2023/05/10 08:38:26;;;;;;;1.47;0.70;;;18.80;56.70;;;;;;20726;6838;120928;-75
2023/05/10 08:40:56;;;;;;;0.70;0.60;;;18.70;57.80;;;;;;20515;6838;285286;-75
2023/05/10 08:43:17;;;;;;;1.80;0.60;;;18.90;55.60;;;;;;20495;6838;282232;-74
2023/05/10 08:45:43;;;;;;;1.13;0.70;;;19.20;54.40;;;;;;20738;6838;117100;-75
2023/05/10 08:48:08;;;;;;;0.63;0.63;;;19.20;55.60;;;;;;20733;6836;117620;-74
2023/05/10 08:50:37;;;;;;;1.05;1.05;;;19.10;56.60;;;;;;20521;6837;282208;-74
2023/05/10 08:53:06;;;;;;;0.70;0.68;;;19.70;55.20;;;;;;20519;6837;305565;-73
2023/05/10 08:55:33;;;;;;;0.82;0.60;;;20.10;54.10;;;;;;20506;6837;308565;-74
2023/05/10 08:57:58;;;;;;;3.50;0.80;;;20.00;54.00;;;;;;20733;6837;117088;-74
2023/05/10 09:00:23;;;;;;;1.50;0.47;;;20.00;54.80;;;;;;20739;6838;117258;-74
2023/05/10 09:02:49;;;;;;;0.95;0.60;;;19.80;55.50;;;;;;20501;6838;306148;-74
2023/05/10 09:05:15;;;;;;;1.27;0.60;;;19.90;53.60;;;;;;20745;6838;124372;-73
2023/05/10 09:07:40;;;;;;;1.73;0.40;;;19.90;54.70;;;;;;20515;6838;310044;-74
2023/05/10 09:10:07;;;;;;;0.60;0.60;;;20.10;52.80;;;;;;20533;6838;336439;-74
2023/05/10 09:12:33;;;;;;;0.40;0.40;;;20.40;52.70;;;;;;20749;6838;117144;-74
2023/05/10 09:14:58;;;;;;;0.60;0.60;;;20.30;53.20;;;;;;20525;6838;307058;-75
2023/05/10 09:17:24;;;;;;;0.63;0.63;;;20.30;51.60;;;;;;20751;6838;117662;-74
2023/05/10 09:19:50;;;;;;;0.53;0.53;;;20.20;52.90;;;;;;20744;6838;117159;-74
2023/05/10 09:22:16;;;;;;;0.47;0.47;;;19.90;53.60;;;;;;20728;6838;117554;-74
2023/05/10 09:24:44;;;;;;;0.57;0.50;;;19.70;54.20;;;;;;20516;6838;309161;-75
2023/05/10 09:27:07;;;;;;;0.65;0.50;;;19.80;52.40;;;;;;20515;6838;277936;-77
2023/05/10 09:29:42;;;;;;;0.60;0.50;;;20.10;51.50;;;;;;20740;6838;120598;-75
2023/05/10 09:32:08;;;;;;;0.23;0.23;;;20.10;53.00;;;;;;20737;6838;117885;-75
2023/05/10 09:34:35;;;;;;;0.60;0.30;;;19.90;53.80;;;;;;20738;6838;117555;-74
2023/05/10 09:37:00;;;;;;;0.55;0.50;;;19.70;54.40;;;;;;20519;6838;280369;-76
2023/05/10 09:39:34;;;;;;;0.50;0.30;;;19.80;51.60;;;;;;20520;6838;336464;-75
2023/05/10 09:42:01;;;;;;;0.60;0.30;;;20.20;51.20;;;;;;20744;6838;117414;-76
2023/05/10 09:44:25;;;;;;;0.50;0.30;;;20.10;52.30;;;;;;20735;6838;117638;-75
2023/05/10 09:46:52;;;;;;;1.12;0.40;;;20.00;53.40;;;;;;20510;6838;289224;-75
2023/05/10 09:49:16;;;;;;;0.50;0.30;;;20.20;51.20;;;;;;20531;6838;336188;-75
2023/05/10 09:51:42;;;;;;;0.30;0.30;;;20.60;51.00;;;;;;20536;6838;278718;-75
2023/05/10 09:54:08;;;;;;;0.50;0.50;;;21.00;50.20;;;;;;20745;6838;117308;-77
2023/05/10 09:56:35;;;;;;;0.30;0.30;;;21.00;50.10;;;;;;20714;6838;118577;-77
2023/05/10 09:59:03;;;;;;;0.50;0.40;;;20.80;51.00;;;;;;20477;6838;308551;-77
2023/05/10 10:01:30;;;;;;;0.30;0.30;;;20.90;48.60;;;;;;20740;6836;117440;-75
2023/05/10 10:03:57;;;;;;;0.40;0.40;;;20.90;50.10;;;;;;20524;6837;335561;-75
2023/05/10 10:06:21;;;;;;;0.30;0.30;;;21.00;47.60;;;;;;20536;6837;320418;-73
2023/05/10 10:08:46;;;;;;;0.32;0.32;;;21.30;46.50;;;;;;20735;6837;117960;-75
2023/05/10 10:11:12;;;;;;;0.47;0.20;;;21.40;48.80;;;;;;20536;6838;306677;-74
2023/05/10 10:13:37;;;;;;;0.30;0.30;;;21.40;46.80;;;;;;20756;6838;117599;-73
2023/05/10 10:16:03;;;;;;;1.13;0.30;;;21.50;48.50;;;;;;20743;6838;117434;-73
2023/05/10 10:18:29;;;;;;;0.50;0.30;;;21.40;49.50;;;;;;20526;6838;307715;-74
2023/05/10 10:20:54;;;;;;;1.12;0.30;;;21.60;47.70;;;;;;20506;6838;310880;-73
2023/05/10 10:23:20;;;;;;;1.55;0.22;;;22.00;47.00;;;;;;20733;6838;119960;-71
2023/05/10 10:29:22;;;;;;;2.07;0.47;;;22.00;46.20;;;;;;20516;6838;277308;-75
2023/05/10 10:32:11;;;;;;;0.60;0.50;;;22.00;46.20;;;;;;20736;6838;117997;-74
2023/05/10 10:34:37;;;;;;;0.60;0.50;;;21.60;48.00;;;;;;20512;6838;307001;-76
2023/05/10 10:37:06;;;;;;;1.80;0.47;;;21.30;47.70;;;;;;20519;6838;281512;-75
2023/05/10 10:39:31;;;;;;;0.40;0.40;;;21.40;47.50;;;;;;20744;6838;122119;-75
2023/05/10 10:41:57;;;;;;;1.45;0.30;;;21.10;48.80;;;;;;20716;6838;120071;-73
2023/05/10 10:44:24;;;;;;;0.40;0.40;;;20.70;49.30;;;;;;20507;6838;282430;-72
2023/05/10 10:47:18;;;;;;;0.70;0.70;;;20.70;49.30;;;;;;20486;6838;307039;-73
2023/05/10 10:49:43;;;;;;;1.40;0.50;;;21.00;49.20;;;;;;20521;6838;118020;-74
2023/05/10 10:52:22;;;;;;;0.73;0.50;;;20.80;50.60;;;;;;20735;6838;117142;-74
2023/05/10 10:54:47;;;;;;;0.83;0.40;;;20.60;51.40;;;;;;20715;6838;119699;-74
2023/05/10 10:57:13;;;;;;;0.63;0.50;;;20.10;52.10;;;;;;20721;6838;117726;-72
2023/05/10 10:59:44;;;;;;;0.60;0.60;;;19.90;52.40;;;;;;20687;6838;118107;-73
2023/05/10 11:02:10;;;;;;;0.47;0.45;;;19.80;52.30;;;;;;20508;6838;311129;-72
2023/05/10 11:04:43;;;;;;;3.17;1.23;;;20.00;50.70;;;;;;20540;6838;282112;-74
2023/05/10 11:07:18;;;;;;;2.53;1.30;;;20.20;50.60;;;;;;20524;6838;311463;-71
2023/05/10 11:09:43;;;;;;;2.42;1.00;;;20.30;51.20;;;;;;20533;6838;310902;-72
2023/05/10 11:12:08;;;;;;;3.20;1.20;;;20.10;51.00;;;;;;20542;6836;282740;-72
2023/05/10 11:14:34;;;;;;;0.60;0.60;;;19.90;51.50;;;;;;20757;6837;117342;-72
2023/05/10 11:16:59;;;;;;;2.20;0.70;;;19.40;52.40;;;;;;20524;6837;281615;-73
2023/05/10 11:19:25;;;;;;;1.77;0.80;;;19.00;51.50;;;;;;20522;6837;336836;-72
2023/05/10 11:21:51;;;;;;;1.55;0.40;;;18.70;52.20;;;;;;20519;6837;307000;-72
2023/05/10 11:24:16;;;;;;;1.23;0.40;;;18.50;52.00;;;;;;20670;6838;122962;-72
2023/05/10 11:26:42;;;;;;;1.00;0.60;;;17.90;52.50;;;;;;20491;6838;277757;-73
2023/05/10 11:29:07;;;;;;;7.30;0.70;;;17.60;52.40;;;;;;20737;6838;121149;-74
2023/05/10 11:31:33;;;;;;;1.83;0.55;;;17.10;53.00;;;;;;20535;6838;277299;-73
2023/05/10 11:34:01;;;;;;;0.65;0.60;;;17.00;53.10;;;;;;20746;6838;117115;-74
2023/05/10 11:36:35;;;;;;;1.80;0.70;;;16.70;54.00;;;;;;20525;6838;278400;-73
2023/05/10 11:39:00;;;;;;;0.80;0.70;;;16.70;54.10;;;;;;20504;6838;307517;-72
2023/05/10 11:41:26;;;;;;;0.87;0.70;;;16.90;54.40;;;;;;20720;6838;117076;-73
2023/05/10 11:43:52;;;;;;;1.83;0.60;;;16.40;55.60;;;;;;20725;6838;118328;-73
2023/05/10 11:46:18;;;;;;;0.70;0.60;;;16.40;55.60;;;;;;20739;6838;117651;-73
2023/05/10 11:48:43;;;;;;;0.77;0.62;;;16.20;56.20;;;;;;20726;6838;117222;-73
2023/05/10 11:51:09;;;;;;;1.63;0.70;;;16.00;56.80;;;;;;20746;6838;117776;-74
2023/05/10 11:53:35;;;;;;;2.40;0.70;;;15.80;57.50;;;;;;20745;6838;116998;-73
2023/05/10 11:56:07;;;;;;;1.63;0.80;;;15.80;58.10;;;;;;20537;6838;282376;-75
2023/05/10 11:58:34;;;;;;;1.83;0.77;;;16.10;58.40;;;;;;20725;6838;117200;-74
2023/05/10 12:01:00;;;;;;;1.10;0.82;;;16.30;58.60;;;;;;20511;6838;282834;-74
2023/05/10 12:03:25;;;;;;;0.80;0.80;;;16.60;58.40;;;;;;20736;6838;121244;-73
2023/05/10 12:05:52;;;;;;;1.25;0.73;;;16.70;59.20;;;;;;20740;6838;117177;-72
2023/05/10 12:08:17;;;;;;;0.93;0.70;;;16.70;59.20;;;;;;20736;6838;117589;-72
2023/05/10 12:10:43;;;;;;;0.80;0.80;;;16.70;59.60;;;;;;20613;6838;134228;-72
2023/05/10 12:13:13;;;;;;;1.50;1.40;;;16.60;59.30;;;;;;20501;6838;307363;-72
2023/05/10 12:15:38;;;;;;;1.70;0.80;;;17.00;58.40;;;;;;20736;6838;117142;-72
2023/05/10 12:18:05;;;;;;;1.67;0.90;;;17.00;57.60;;;;;;20537;6838;278629;-73
2023/05/10 12:20:29;;;;;;;0.73;0.70;;;17.30;57.80;;;;;;20747;6838;117221;-71
2023/05/10 12:22:55;;;;;;;0.88;0.88;;;17.60;57.80;;;;;;20512;6836;437527;-73
2023/05/10 12:25:21;;;;;;;1.20;0.70;;;17.60;57.70;;;;;;20527;6837;307375;-72
2023/05/10 12:27:53;;;;;;;1.23;1.12;;;17.90;56.20;;;;;;20516;6837;307634;-73
2023/05/10 12:30:19;;;;;;;0.70;0.70;;;18.30;57.50;;;;;;20736;6837;117057;-72
2023/05/10 12:32:45;;;;;;;1.40;0.60;;;18.20;58.10;;;;;;20720;6837;117514;-72
2023/05/10 12:35:11;;;;;;;1.02;0.98;;;18.40;57.50;;;;;;20525;6838;336731;-71